Time;durP1;ratioP1;P1;durP2;ratioP2;P2;SDS_P1;SDS_P2;PMS_P1;PMS_P2;Temp;Humidity;BMP_temperature;BMP_pressure;BME280_temperature;BME280_humidity;BME280_pressure;Samples;Min_cycle;Max_cycle;Signal;HPM_P1;HPM_P2
2022/04/22 00:00:20;;;;;;;11.60;7.20;;;;;;;;;;5007337;28;20041;-83
2022/04/22 00:02:46;;;;;;;10.15;7.60;;;;;;;;;;5007808;28;20038;-83
2022/04/22 00:05:12;;;;;;;11.98;8.02;;;;;;;;;;5007376;28;20102;-83
2022/04/22 00:07:38;;;;;;;11.32;7.85;;;;;;;;;;5009274;28;20141;-84
2022/04/22 00:10:05;;;;;;;11.32;8.35;;;;;;;;;;5007190;28;20084;-83
2022/04/22 00:12:32;;;;;;;10.52;7.40;;;;;;;;;;5008087;28;20022;-84
2022/04/22 00:14:58;;;;;;;11.23;8.18;;;;;;;;;;5003279;28;20054;-84
2022/04/22 00:17:24;;;;;;;11.15;7.28;;;;;;;;;;5007634;28;20035;-84
2022/04/22 00:19:50;;;;;;;9.93;7.80;;;;;;;;;;5008777;28;20041;-83
2022/04/22 00:22:16;;;;;;;11.15;7.90;;;;;;;;;;5007900;28;20026;-84
2022/04/22 00:24:42;;;;;;;10.32;7.95;;;;;;;;;;5009419;28;20078;-85
2022/04/22 00:27:08;;;;;;;10.57;7.55;;;;;;;;;;5014687;28;20034;-84
2022/04/22 00:29:34;;;;;;;12.68;7.72;;;;;;;;;;5012261;28;20041;-85
2022/04/22 00:31:59;;;;;;;11.38;8.40;;;;;;;;;;5010931;28;20033;-84
2022/04/22 00:34:26;;;;;;;11.25;8.00;;;;;;;;;;5012219;28;20033;-84
2022/04/22 00:36:52;;;;;;;11.30;8.35;;;;;;;;;;5010988;28;20058;-84
2022/04/22 00:39:18;;;;;;;10.23;7.95;;;;;;;;;;5012164;28;20034;-84
2022/04/22 00:41:44;;;;;;;12.68;8.48;;;;;;;;;;5011854;28;20061;-84
2022/04/22 00:44:10;;;;;;;12.15;8.50;;;;;;;;;;5002689;28;20025;-84
2022/04/22 00:46:37;;;;;;;13.98;8.15;;;;;;;;;;5007925;28;20055;-84
2022/04/22 00:49:03;;;;;;;12.43;8.57;;;;;;;;;;5009569;28;20038;-82
2022/04/22 00:51:30;;;;;;;10.88;8.80;;;;;;;;;;5011561;28;20034;-82
2022/04/22 00:53:57;;;;;;;12.13;8.50;;;;;;;;;;4998351;28;20031;-82
2022/04/22 00:56:24;;;;;;;10.88;7.65;;;;;;;;;;4998574;28;20026;-82
2022/04/22 00:58:51;;;;;;;11.73;8.23;;;;;;;;;;5010746;28;20041;-82
2022/04/22 01:01:17;;;;;;;12.10;8.60;;;;;;;;;;5009789;28;20078;-82
2022/04/22 01:12:06;;;;;;;11.98;8.50;;;;;;;;;;4991646;28;20046;-82
2022/04/22 01:14:32;;;;;;;12.60;8.43;;;;;;;;;;5019564;28;20030;-81
2022/04/22 01:17:00;;;;;;;12.10;7.95;;;;;;;;;;5009339;28;20038;-84
2022/04/22 01:19:26;;;;;;;11.77;8.23;;;;;;;;;;5009312;28;20145;-84
2022/04/22 01:21:52;;;;;;;12.85;8.60;;;;;;;;;;5009454;28;20034;-82
2022/04/22 01:24:18;;;;;;;12.40;8.98;;;;;;;;;;5009588;28;20031;-84
2022/04/22 01:26:45;;;;;;;13.30;8.95;;;;;;;;;;5010307;28;20481;-82
2022/04/22 01:29:12;;;;;;;12.23;8.82;;;;;;;;;;5011502;28;20046;-84
2022/04/22 01:31:38;;;;;;;13.07;9.23;;;;;;;;;;5012162;28;20038;-83
2022/04/22 01:34:04;;;;;;;12.57;8.45;;;;;;;;;;5012692;28;20078;-83
2022/04/22 01:36:30;;;;;;;12.45;8.93;;;;;;;;;;5012845;28;20026;-83
2022/04/22 01:38:56;;;;;;;12.70;8.88;;;;;;;;;;5012138;28;20127;-83
2022/04/22 01:41:22;;;;;;;14.77;9.50;;;;;;;;;;5012996;28;20106;-84
2022/04/22 01:43:48;;;;;;;13.68;8.65;;;;;;;;;;5009773;28;20050;-84
2022/04/22 01:46:15;;;;;;;13.07;8.65;;;;;;;;;;5011950;28;20037;-83
2022/04/22 01:48:42;;;;;;;11.88;9.32;;;;;;;;;;5013541;28;20039;-84
2022/04/22 01:51:08;;;;;;;10.90;8.43;;;;;;;;;;5011666;28;20030;-82
2022/04/22 01:53:34;;;;;;;11.10;8.02;;;;;;;;;;5010842;28;20038;-82
2022/04/22 01:56:00;;;;;;;13.75;9.85;;;;;;;;;;5001718;28;20114;-82
2022/04/22 01:58:26;;;;;;;11.82;8.30;;;;;;;;;;5011229;28;20038;-82
2022/04/22 02:00:52;;;;;;;12.45;8.43;;;;;;;;;;5011483;28;20027;-82
2022/04/22 02:03:18;;;;;;;12.30;8.80;;;;;;;;;;5011234;28;20033;-82
2022/04/22 02:05:44;;;;;;;12.50;8.30;;;;;;;;;;5010874;28;20485;-82
2022/04/22 02:08:10;;;;;;;12.27;9.15;;;;;;;;;;5012143;28;20131;-82
2022/04/22 02:10:36;;;;;;;14.13;9.45;;;;;;;;;;5012824;28;20448;-82
2022/04/22 02:13:02;;;;;;;12.40;9.05;;;;;;;;;;5010125;28;20022;-82
2022/04/22 02:15:28;;;;;;;13.27;9.40;;;;;;;;;;5012597;28;20026;-82
2022/04/22 02:17:54;;;;;;;12.88;8.48;;;;;;;;;;5011513;28;20506;-82
2022/04/22 02:20:21;;;;;;;12.88;8.57;;;;;;;;;;5011683;28;20046;-82
2022/04/22 02:22:47;;;;;;;11.98;8.93;;;;;;;;;;5012161;28;20023;-82
2022/04/22 02:25:13;;;;;;;16.27;8.68;;;;;;;;;;5011877;28;20088;-82
2022/04/22 02:30:24;;;;;;;13.30;8.80;;;;;;;;;;5012309;28;20037;-82
2022/04/22 02:32:50;;;;;;;12.02;9.05;;;;;;;;;;5011660;28;20129;-82
2022/04/22 02:35:21;;;;;;;12.45;9.73;;;;;;;;;;5012426;28;20491;-82
2022/04/22 02:37:52;;;;;;;12.43;9.65;;;;;;;;;;5009976;28;20471;-82
2022/04/22 02:45:48;;;;;;;12.32;9.25;;;;;;;;;;5011504;28;20075;-82
2022/04/22 02:48:14;;;;;;;13.07;9.10;;;;;;;;;;5010825;28;20034;-82
2022/04/22 02:50:41;;;;;;;14.45;9.73;;;;;;;;;;5010878;28;20050;-82
2022/04/22 02:53:07;;;;;;;14.02;9.50;;;;;;;;;;4995271;28;20043;-82
2022/04/22 02:55:35;;;;;;;14.13;9.52;;;;;;;;;;5010472;28;20033;-82
2022/04/22 02:58:01;;;;;;;14.15;10.38;;;;;;;;;;5009152;28;20030;-82
2022/04/22 03:00:27;;;;;;;12.23;8.93;;;;;;;;;;5010975;28;20030;-82
2022/04/22 03:02:53;;;;;;;13.88;9.95;;;;;;;;;;5008030;28;20036;-82
2022/04/22 03:05:19;;;;;;;12.45;8.73;;;;;;;;;;5010141;28;20034;-83
2022/04/22 03:07:45;;;;;;;12.27;9.70;;;;;;;;;;5010637;28;20042;-83
2022/04/22 03:10:11;;;;;;;13.35;9.30;;;;;;;;;;5010345;28;20027;-83
2022/04/22 03:12:37;;;;;;;13.68;9.82;;;;;;;;;;5008672;28;20030;-82
2022/04/22 03:15:03;;;;;;;13.25;10.07;;;;;;;;;;5002772;28;20035;-83
2022/04/22 03:17:30;;;;;;;12.82;9.40;;;;;;;;;;4992739;28;20034;-82
2022/04/22 03:19:56;;;;;;;14.35;10.10;;;;;;;;;;5006345;28;20086;-82
2022/04/22 03:22:22;;;;;;;14.00;9.73;;;;;;;;;;5009221;28;20022;-83
2022/04/22 03:24:48;;;;;;;14.13;9.82;;;;;;;;;;5021861;28;20109;-83
2022/04/22 03:27:14;;;;;;;12.95;9.10;;;;;;;;;;5027634;28;20056;-83
2022/04/22 03:29:40;;;;;;;12.25;9.57;;;;;;;;;;5007282;28;20038;-83
2022/04/22 03:32:07;;;;;;;12.55;9.50;;;;;;;;;;5009668;28;20116;-83
2022/04/22 03:34:33;;;;;;;13.68;10.30;;;;;;;;;;5010378;28;20054;-83
2022/04/22 03:36:59;;;;;;;13.55;9.40;;;;;;;;;;5011437;28;20066;-83
2022/04/22 03:39:25;;;;;;;12.85;9.40;;;;;;;;;;5015587;28;20038;-83
2022/04/22 03:41:51;;;;;;;12.90;9.40;;;;;;;;;;5012372;28;20034;-83
2022/04/22 03:44:18;;;;;;;13.10;9.30;;;;;;;;;;5010164;28;20086;-83
2022/04/22 03:46:44;;;;;;;12.27;9.52;;;;;;;;;;5011493;28;20072;-83
2022/04/22 03:49:10;;;;;;;13.48;9.98;;;;;;;;;;5009968;28;20042;-83
2022/04/22 03:51:36;;;;;;;12.68;10.00;;;;;;;;;;5008635;28;20026;-83
2022/04/22 03:54:03;;;;;;;15.30;9.80;;;;;;;;;;4998337;28;20006;-83
2022/04/22 03:59:14;;;;;;;14.05;10.25;;;;;;;;;;5007088;28;20038;-83
2022/04/22 04:01:40;;;;;;;15.38;9.73;;;;;;;;;;5009810;28;20030;-83
2022/04/22 04:04:06;;;;;;;14.55;10.32;;;;;;;;;;5018764;28;20045;-84
2022/04/22 04:06:32;;;;;;;16.55;11.45;;;;;;;;;;5009780;28;20090;-84
2022/04/22 04:17:14;;;;;;;17.67;10.48;;;;;;;;;;5013193;28;20049;-83
2022/04/22 04:25:10;;;;;;;16.48;10.18;;;;;;;;;;5015094;28;20045;-84
2022/04/22 04:27:36;;;;;;;16.27;10.73;;;;;;;;;;5016852;28;20018;-83
2022/04/22 04:30:06;;;;;;;15.40;11.10;;;;;;;;;;5016432;28;20065;-83
2022/04/22 04:32:32;;;;;;;17.02;10.52;;;;;;;;;;5007424;28;20022;-82
2022/04/22 04:34:58;;;;;;;17.10;11.80;;;;;;;;;;5017273;28;20480;-82
2022/04/22 04:37:24;;;;;;;16.90;10.88;;;;;;;;;;5011057;28;20061;-82
2022/04/22 04:39:50;;;;;;;17.17;10.45;;;;;;;;;;5009497;28;20027;-82
2022/04/22 04:42:16;;;;;;;19.58;12.50;;;;;;;;;;5009734;28;20057;-82
2022/04/22 04:44:42;;;;;;;14.82;10.23;;;;;;;;;;5008494;28;20030;-82
2022/04/22 04:47:08;;;;;;;16.60;10.82;;;;;;;;;;5026727;28;20022;-82
2022/04/22 04:49:34;;;;;;;17.10;11.10;;;;;;;;;;5008941;28;20051;-83
2022/04/22 04:52:00;;;;;;;17.20;11.23;;;;;;;;;;5007007;28;20038;-83
2022/04/22 04:54:26;;;;;;;20.10;11.85;;;;;;;;;;4997552;28;20023;-82
2022/04/22 04:56:53;;;;;;;14.80;10.60;;;;;;;;;;5009574;28;20029;-83
2022/04/22 04:59:19;;;;;;;17.13;11.73;;;;;;;;;;5010429;28;20034;-82
2022/04/22 05:01:46;;;;;;;15.85;11.52;;;;;;;;;;5018049;28;20037;-83
2022/04/22 05:04:12;;;;;;;17.33;11.75;;;;;;;;;;5019835;28;20022;-83
2022/04/22 05:06:38;;;;;;;16.70;11.25;;;;;;;;;;5019749;28;20029;-82
2022/04/22 05:09:03;;;;;;;19.73;11.32;;;;;;;;;;5020043;28;20058;-82
2022/04/22 05:11:30;;;;;;;18.20;11.50;;;;;;;;;;5018917;28;20035;-82
2022/04/22 05:13:58;;;;;;;18.67;11.70;;;;;;;;;;5012890;28;20065;-82
2022/04/22 05:16:24;;;;;;;17.80;11.85;;;;;;;;;;5012044;28;20038;-82
2022/04/22 05:18:50;;;;;;;18.13;11.05;;;;;;;;;;5012017;28;20098;-83
2022/04/22 05:21:16;;;;;;;16.48;11.35;;;;;;;;;;5012740;28;20041;-82
2022/04/22 05:23:42;;;;;;;17.67;10.90;;;;;;;;;;5012556;28;20022;-82
2022/04/22 05:26:08;;;;;;;17.00;12.07;;;;;;;;;;5013437;28;20038;-83
2022/04/22 05:28:34;;;;;;;16.77;11.73;;;;;;;;;;5008434;28;20031;-83
2022/04/22 05:33:45;;;;;;;19.70;11.77;;;;;;;;;;5011453;28;20037;-82
2022/04/22 05:36:11;;;;;;;15.73;10.70;;;;;;;;;;5011236;28;20224;-82
2022/04/22 05:38:37;;;;;;;20.25;11.65;;;;;;;;;;5010683;28;20022;-83
2022/04/22 05:41:03;;;;;;;16.63;11.60;;;;;;;;;;5012297;28;20362;-83
2022/04/22 05:43:29;;;;;;;16.70;10.70;;;;;;;;;;5012479;28;20042;-83
2022/04/22 05:45:55;;;;;;;18.77;12.68;;;;;;;;;;5013493;28;20404;-82
2022/04/22 05:48:21;;;;;;;17.02;11.25;;;;;;;;;;5011599;28;20040;-82
2022/04/22 05:50:47;;;;;;;20.75;12.48;;;;;;;;;;5012254;28;20023;-82
2022/04/22 05:53:13;;;;;;;20.38;11.15;;;;;;;;;;5008296;28;20057;-83
2022/04/22 05:55:40;;;;;;;20.50;11.95;;;;;;;;;;5007858;28;20046;-83
2022/04/22 05:58:06;;;;;;;18.30;11.75;;;;;;;;;;5008179;28;20027;-82
2022/04/22 06:00:33;;;;;;;16.23;10.65;;;;;;;;;;5008797;28;20113;-83
2022/04/22 06:02:59;;;;;;;17.33;10.90;;;;;;;;;;5008342;28;20042;-82
2022/04/22 06:05:26;;;;;;;17.75;11.18;;;;;;;;;;5009502;28;20037;-82
2022/04/22 06:10:39;;;;;;;19.92;12.27;;;;;;;;;;5009178;28;20558;-82
2022/04/22 06:13:06;;;;;;;18.52;12.20;;;;;;;;;;4991326;28;20054;-82
2022/04/22 06:15:32;;;;;;;19.73;12.27;;;;;;;;;;5008615;28;20026;-83
2022/04/22 06:17:59;;;;;;;17.80;11.98;;;;;;;;;;5009463;28;20102;-83
2022/04/22 06:20:25;;;;;;;18.15;11.40;;;;;;;;;;5009156;28;20010;-82
2022/04/22 06:22:51;;;;;;;17.77;12.38;;;;;;;;;;5010243;28;20088;-83
2022/04/22 06:25:17;;;;;;;19.02;11.55;;;;;;;;;;5008705;28;20113;-82
2022/04/22 06:27:45;;;;;;;21.25;12.70;;;;;;;;;;5007654;28;20026;-82
2022/04/22 06:30:15;;;;;;;18.55;12.35;;;;;;;;;;5003982;28;20057;-82
2022/04/22 06:32:42;;;;;;;18.48;12.80;;;;;;;;;;5007768;28;20086;-81
2022/04/22 06:35:09;;;;;;;17.75;12.43;;;;;;;;;;5009653;28;20026;-81
2022/04/22 06:37:36;;;;;;;18.88;12.68;;;;;;;;;;5008594;28;20028;-82
2022/04/22 06:45:49;;;;;;;20.73;12.15;;;;;;;;;;5008957;28;20099;-81
2022/04/22 06:48:19;;;;;;;17.15;11.35;;;;;;;;;;5008689;28;20067;-81
2022/04/22 06:50:46;;;;;;;16.92;11.55;;;;;;;;;;5007350;28;20062;-82
2022/04/22 06:53:13;;;;;;;17.95;11.77;;;;;;;;;;5010218;28;20033;-82
2022/04/22 06:55:40;;;;;;;18.48;11.27;;;;;;;;;;5007734;28;20026;-81
2022/04/22 06:58:11;;;;;;;21.10;11.60;;;;;;;;;;5009007;28;20022;-82
2022/04/22 07:00:37;;;;;;;18.90;11.98;;;;;;;;;;5003336;28;20026;-82
2022/04/22 07:03:04;;;;;;;16.30;11.55;;;;;;;;;;5008028;28;20042;-82
2022/04/22 07:05:31;;;;;;;17.73;11.95;;;;;;;;;;5005311;28;20034;-82
2022/04/22 07:07:57;;;;;;;17.45;12.18;;;;;;;;;;5006294;28;20023;-81
2022/04/22 07:10:23;;;;;;;16.08;12.27;;;;;;;;;;5006188;28;20125;-81
2022/04/22 07:12:49;;;;;;;20.40;11.98;;;;;;;;;;5008168;28;20044;-82
2022/04/22 07:15:15;;;;;;;17.38;12.48;;;;;;;;;;5008263;28;20026;-82
2022/04/22 07:17:42;;;;;;;20.13;14.18;;;;;;;;;;5008527;28;20033;-81
2022/04/22 07:20:09;;;;;;;17.95;12.32;;;;;;;;;;5006979;28;20030;-81
2022/04/22 07:22:36;;;;;;;17.95;13.57;;;;;;;;;;5005793;28;20497;-82
2022/04/22 07:25:02;;;;;;;17.33;13.38;;;;;;;;;;5005584;28;20042;-82
2022/04/22 07:27:30;;;;;;;18.20;13.27;;;;;;;;;;5007380;28;20026;-81
2022/04/22 07:29:58;;;;;;;21.33;13.55;;;;;;;;;;5008832;28;20114;-82
2022/04/22 07:32:25;;;;;;;19.92;14.55;;;;;;;;;;5009972;28;20018;-82
2022/04/22 07:34:51;;;;;;;18.98;13.93;;;;;;;;;;5007972;28;20022;-82
2022/04/22 07:37:17;;;;;;;21.20;14.18;;;;;;;;;;5008619;28;20037;-82
2022/04/22 07:39:43;;;;;;;21.63;14.10;;;;;;;;;;5007133;28;20023;-82
2022/04/22 07:42:15;;;;;;;20.27;14.48;;;;;;;;;;5008803;28;20045;-82
2022/04/22 07:47:27;;;;;;;20.13;14.25;;;;;;;;;;5008966;28;20318;-82
2022/04/22 07:49:53;;;;;;;22.63;15.50;;;;;;;;;;5007201;28;20040;-83
2022/04/22 07:52:19;;;;;;;20.88;14.00;;;;;;;;;;5005329;28;20037;-81
2022/04/22 07:54:45;;;;;;;18.88;13.60;;;;;;;;;;5007047;28;20018;-82
2022/04/22 07:57:11;;;;;;;21.27;15.18;;;;;;;;;;5008268;28;20562;-81
2022/04/22 07:59:37;;;;;;;20.15;14.70;;;;;;;;;;5003441;28;20069;-82
2022/04/22 08:02:03;;;;;;;22.88;16.63;;;;;;;;;;4994178;28;20023;-82
2022/04/22 08:04:30;;;;;;;20.27;15.10;;;;;;;;;;5002969;28;20416;-82
2022/04/22 08:06:56;;;;;;;22.58;14.65;;;;;;;;;;5006631;28;20019;-83
2022/04/22 08:09:22;;;;;;;24.00;15.50;;;;;;;;;;5008520;28;20032;-82
2022/04/22 08:11:48;;;;;;;24.35;15.13;;;;;;;;;;5007729;28;20054;-82
2022/04/22 08:14:15;;;;;;;23.00;17.05;;;;;;;;;;5007236;28;20050;-81
2022/04/22 08:16:41;;;;;;;23.00;16.48;;;;;;;;;;5007154;28;20018;-83
2022/04/22 08:19:07;;;;;;;23.50;16.60;;;;;;;;;;5008098;28;20137;-82
2022/04/22 08:21:33;;;;;;;21.55;16.13;;;;;;;;;;5008101;28;20026;-83
2022/04/22 08:24:00;;;;;;;23.40;15.23;;;;;;;;;;5007523;28;20065;-82
2022/04/22 08:26:26;;;;;;;21.30;15.25;;;;;;;;;;5006364;28;20208;-82
2022/04/22 08:28:52;;;;;;;23.92;16.63;;;;;;;;;;5006851;28;20030;-82
2022/04/22 08:31:18;;;;;;;21.25;16.38;;;;;;;;;;5008638;28;20114;-83
2022/04/22 08:33:46;;;;;;;21.48;16.73;;;;;;;;;;5006921;28;20037;-83
2022/04/22 08:36:12;;;;;;;22.13;16.92;;;;;;;;;;5005915;28;20090;-82
2022/04/22 08:38:38;;;;;;;21.38;16.25;;;;;;;;;;5005748;28;20476;-82
2022/04/22 08:41:05;;;;;;;21.30;15.32;;;;;;;;;;5005828;28;20085;-82
2022/04/22 08:43:33;;;;;;;22.55;16.63;;;;;;;;;;5006081;28;20085;-83
2022/04/22 08:45:59;;;;;;;21.65;16.33;;;;;;;;;;4998576;28;20023;-82
2022/04/22 08:51:10;;;;;;;21.98;16.05;;;;;;;;;;5007845;28;20057;-83
2022/04/22 08:53:37;;;;;;;20.35;15.32;;;;;;;;;;5007623;28;20019;-82
2022/04/22 08:56:05;;;;;;;22.85;17.17;;;;;;;;;;5002781;28;20058;-82
2022/04/22 08:58:31;;;;;;;24.00;17.08;;;;;;;;;;5002820;28;20030;-82
2022/04/22 09:00:58;;;;;;;23.38;17.17;;;;;;;;;;5001317;28;20033;-82
2022/04/22 09:03:26;;;;;;;23.73;16.20;;;;;;;;;;5007008;28;20042;-81
2022/04/22 09:05:53;;;;;;;24.92;18.20;;;;;;;;;;4998018;28;20023;-83
2022/04/22 09:08:19;;;;;;;22.58;16.13;;;;;;;;;;5005264;28;20049;-83
2022/04/22 09:10:51;;;;;;;23.15;16.48;;;;;;;;;;5002347;28;20026;-82
2022/04/22 09:13:24;;;;;;;21.80;15.57;;;;;;;;;;5002940;28;20014;-82
2022/04/22 09:15:50;;;;;;;22.63;15.50;;;;;;;;;;5006314;28;20018;-82
2022/04/22 09:18:16;;;;;;;24.92;19.83;;;;;;;;;;5013356;28;20036;-82
2022/04/22 09:23:46;;;;;;;22.50;16.88;;;;;;;;;;5001851;28;20078;-83
2022/04/22 09:26:20;;;;;;;21.63;16.05;;;;;;;;;;5004863;28;20038;-83
2022/04/22 09:28:58;;;;;;;20.23;15.98;;;;;;;;;;5005729;28;20030;-82
2022/04/22 09:31:25;;;;;;;21.80;16.70;;;;;;;;;;4993664;28;20022;-82
2022/04/22 09:33:51;;;;;;;20.70;15.05;;;;;;;;;;4984991;28;20090;-82
2022/04/22 09:44:56;;;;;;;21.30;15.88;;;;;;;;;;4988778;28;20080;-82
2022/04/22 09:47:25;;;;;;;22.70;15.35;;;;;;;;;;5004731;28;20080;-82
2022/04/22 09:49:51;;;;;;;20.83;15.27;;;;;;;;;;5007516;28;20034;-83
2022/04/22 09:52:24;;;;;;;20.42;15.00;;;;;;;;;;5008202;28;20018;-82
2022/04/22 09:55:04;;;;;;;20.90;14.93;;;;;;;;;;5007624;28;20077;-83
2022/04/22 09:57:49;;;;;;;19.08;13.75;;;;;;;;;;5004768;28;20032;-83
2022/04/22 10:00:18;;;;;;;21.52;14.82;;;;;;;;;;4987194;28;20030;-82
2022/04/22 10:02:56;;;;;;;20.08;14.80;;;;;;;;;;4990303;28;20058;-82
2022/04/22 10:08:28;;;;;;;;;;;;;;;;;;5007128;28;20073;-83
2022/04/22 10:10:55;;;;;;;19.10;13.85;;;;;;;;;;5006812;28;19906;-83
2022/04/22 10:13:22;;;;;;;19.52;14.55;;;;;;;;;;5006734;28;20036;-83
2022/04/22 10:15:49;;;;;;;21.10;16.15;;;;;;;;;;5004605;28;20030;-83
2022/04/22 10:18:16;;;;;;;19.80;16.08;;;;;;;;;;5005285;28;20026;-83
2022/04/22 10:20:46;;;;;;;24.10;17.55;;;;;;;;;;5002001;28;20022;-83
2022/04/22 10:23:13;;;;;;;20.90;14.80;;;;;;;;;;5001034;28;20022;-82
2022/04/22 10:25:39;;;;;;;25.38;18.20;;;;;;;;;;5002234;28;20045;-82
2022/04/22 10:28:07;;;;;;;19.50;14.77;;;;;;;;;;5003077;28;20062;-83
2022/04/22 10:30:33;;;;;;;20.20;14.25;;;;;;;;;;5004210;28;20500;-83
2022/04/22 10:33:00;;;;;;;20.80;14.52;;;;;;;;;;5001892;28;20058;-82
2022/04/22 10:35:26;;;;;;;21.10;14.98;;;;;;;;;;5003505;28;20026;-83
2022/04/22 10:37:54;;;;;;;19.95;15.07;;;;;;;;;;5002033;28;20027;-82
2022/04/22 10:40:21;;;;;;;20.52;14.77;;;;;;;;;;5006732;28;20032;-82
2022/04/22 10:42:48;;;;;;;23.30;15.20;;;;;;;;;;5005153;28;20046;-81
2022/04/22 10:47:59;;;;;;;19.90;13.52;;;;;;;;;;5004915;28;20436;-82
2022/04/22 10:50:37;;;;;;;18.70;13.77;;;;;;;;;;5002754;28;20027;-82
2022/04/22 10:53:07;;;;;;;18.35;13.57;;;;;;;;;;5003015;28;20497;-82
2022/04/22 10:55:38;;;;;;;17.17;12.63;;;;;;;;;;5004232;28;20015;-82
2022/04/22 10:58:13;;;;;;;17.58;13.23;;;;;;;;;;5002076;28;20026;-82
2022/04/22 11:00:45;;;;;;;18.30;12.77;;;;;;;;;;5003356;28;20026;-82
2022/04/22 11:03:16;;;;;;;18.92;14.63;;;;;;;;;;5002578;28;20027;-82
2022/04/22 11:05:49;;;;;;;18.38;14.00;;;;;;;;;;4993567;28;20030;-82
2022/04/22 11:08:26;;;;;;;19.13;12.93;;;;;;;;;;5001076;28;20034;-82
2022/04/22 11:10:52;;;;;;;18.58;14.15;;;;;;;;;;5000088;28;20030;-82
2022/04/22 11:13:35;;;;;;;17.25;12.38;;;;;;;;;;5000485;28;20117;-81
2022/04/22 11:16:14;;;;;;;18.90;13.35;;;;;;;;;;4994089;28;20029;-81
2022/04/22 11:18:41;;;;;;;18.98;12.45;;;;;;;;;;5002012;28;20610;-80
2022/04/22 11:21:35;;;;;;;17.67;12.63;;;;;;;;;;5005142;28;20065;-82
2022/04/22 11:24:09;;;;;;;19.38;13.57;;;;;;;;;;4999543;28;20058;-81
2022/04/22 11:26:35;;;;;;;18.63;12.95;;;;;;;;;;5007715;28;20124;-81
2022/04/22 11:29:02;;;;;;;18.27;13.02;;;;;;;;;;4992325;28;20030;-81
2022/04/22 11:31:29;;;;;;;19.50;13.55;;;;;;;;;;4988179;28;20022;-82
2022/04/22 11:33:55;;;;;;;21.48;15.13;;;;;;;;;;5005426;28;20419;-81
2022/04/22 11:36:22;;;;;;;19.85;14.18;;;;;;;;;;5005549;28;20037;-81
2022/04/22 11:38:49;;;;;;;20.08;14.38;;;;;;;;;;5008452;28;20026;-81
2022/04/22 11:41:16;;;;;;;20.15;14.63;;;;;;;;;;5006850;28;20041;-80
2022/04/22 11:43:43;;;;;;;19.17;14.80;;;;;;;;;;5006245;28;20030;-81
2022/04/22 11:46:10;;;;;;;20.98;13.50;;;;;;;;;;5000688;28;20038;-80
2022/04/22 11:48:44;;;;;;;20.65;13.80;;;;;;;;;;4999899;28;20023;-81
2022/04/22 11:51:10;;;;;;;19.67;13.60;;;;;;;;;;4995989;28;20029;-80
2022/04/22 11:53:37;;;;;;;19.38;13.27;;;;;;;;;;4996694;28;20038;-79
2022/04/22 11:56:04;;;;;;;19.23;13.75;;;;;;;;;;5009122;28;20293;-81
2022/04/22 11:58:30;;;;;;;19.00;12.75;;;;;;;;;;5004454;28;20053;-80
2022/04/22 12:06:28;;;;;;;18.52;13.25;;;;;;;;;;4984917;28;20050;-80
2022/04/22 12:08:54;;;;;;;17.95;13.70;;;;;;;;;;4984536;28;20026;-80
2022/04/22 12:11:21;;;;;;;20.17;13.38;;;;;;;;;;4982078;28;20390;-80
2022/04/22 12:13:48;;;;;;;17.25;13.25;;;;;;;;;;4984549;28;20026;-80
2022/04/22 12:16:19;;;;;;;18.73;13.05;;;;;;;;;;4988228;28;20023;-80
2022/04/22 12:18:46;;;;;;;17.83;12.65;;;;;;;;;;4990986;28;20019;-80
2022/04/22 12:21:12;;;;;;;18.83;13.23;;;;;;;;;;4982967;28;20049;-80
2022/04/22 12:23:40;;;;;;;19.23;13.63;;;;;;;;;;5001482;28;20030;-80
2022/04/22 12:26:13;;;;;;;20.85;15.00;;;;;;;;;;5001873;28;20026;-80
2022/04/22 12:28:56;;;;;;;20.65;14.02;;;;;;;;;;5005086;28;20026;-79
2022/04/22 12:31:22;;;;;;;21.63;15.85;;;;;;;;;;5003162;28;20022;-80
2022/04/22 12:33:57;;;;;;;20.85;14.75;;;;;;;;;;4994176;28;20089;-80
2022/04/22 12:36:23;;;;;;;19.02;13.93;;;;;;;;;;4988350;28;20385;-81
2022/04/22 12:38:49;;;;;;;18.42;13.85;;;;;;;;;;4993011;28;20062;-81
2022/04/22 12:41:23;;;;;;;21.88;15.15;;;;;;;;;;4995790;28;20022;-81
2022/04/22 12:43:53;;;;;;;22.10;15.05;;;;;;;;;;4995901;28;20089;-81
2022/04/22 12:52:16;;;;;;;22.10;16.50;;;;;;;;;;5004284;28;20091;-80
2022/04/22 12:54:46;;;;;;;22.20;15.88;;;;;;;;;;4978495;28;20030;-81
2022/04/22 12:57:16;;;;;;;20.33;14.52;;;;;;;;;;5008162;28;20157;-79
2022/04/22 12:59:43;;;;;;;22.83;16.25;;;;;;;;;;4995666;28;20015;-79
2022/04/22 13:02:10;;;;;;;22.42;16.02;;;;;;;;;;4993974;28;20039;-80
2022/04/22 13:04:50;;;;;;;23.13;16.83;;;;;;;;;;5009216;28;20041;-79
2022/04/22 13:07:16;;;;;;;17.27;13.40;;;;;;;;;;5010741;28;20023;-79
2022/04/22 13:09:42;;;;;;;17.38;13.13;;;;;;;;;;5004158;28;20053;-81
2022/04/22 13:12:08;;;;;;;20.25;13.27;;;;;;;;;;4996715;28;20019;-81
2022/04/22 13:14:34;;;;;;;25.83;18.33;;;;;;;;;;4990144;28;20019;-81
2022/04/22 13:17:01;;;;;;;20.17;13.88;;;;;;;;;;4990151;28;20086;-81
2022/04/22 13:19:27;;;;;;;19.92;14.38;;;;;;;;;;4988837;28;20118;-81
2022/04/22 13:21:53;;;;;;;23.48;18.73;;;;;;;;;;4995021;28;20031;-81
2022/04/22 13:24:19;;;;;;;19.38;13.93;;;;;;;;;;4997500;28;20026;-81
2022/04/22 13:26:45;;;;;;;17.42;13.07;;;;;;;;;;4995898;28;20030;-80
2022/04/22 13:29:11;;;;;;;19.95;15.20;;;;;;;;;;4999553;28;20037;-81
2022/04/22 13:31:37;;;;;;;17.45;12.43;;;;;;;;;;4996992;28;20026;-81
2022/04/22 13:34:04;;;;;;;17.08;13.40;;;;;;;;;;4996767;28;20018;-81
2022/04/22 13:36:31;;;;;;;22.33;19.08;;;;;;;;;;5007053;28;20117;-81
2022/04/22 13:38:57;;;;;;;18.40;13.10;;;;;;;;;;5015904;28;20018;-79
2022/04/22 13:41:23;;;;;;;21.88;15.02;;;;;;;;;;5002274;28;20396;-80
2022/04/22 13:43:49;;;;;;;18.88;14.02;;;;;;;;;;5018196;28;20164;-80
2022/04/22 13:54:29;;;;;;;23.25;16.73;;;;;;;;;;5000108;28;20064;-81
2022/04/22 13:56:55;;;;;;;24.73;18.15;;;;;;;;;;4998965;28;20018;-82
2022/04/22 13:59:21;;;;;;;28.65;21.42;;;;;;;;;;4997834;28;20030;-82
2022/04/22 14:01:47;;;;;;;24.20;19.23;;;;;;;;;;4997450;28;20037;-81
2022/04/22 14:04:13;;;;;;;20.75;17.00;;;;;;;;;;4997979;28;20030;-82
2022/04/22 14:06:39;;;;;;;19.88;15.40;;;;;;;;;;4992161;28;20501;-83
2022/04/22 14:09:05;;;;;;;20.27;15.35;;;;;;;;;;4998911;28;20122;-82
2022/04/22 14:11:31;;;;;;;22.10;15.40;;;;;;;;;;4996656;28;20053;-83
2022/04/22 14:13:57;;;;;;;20.50;16.85;;;;;;;;;;4997767;28;20026;-82
2022/04/22 14:16:24;;;;;;;20.45;15.07;;;;;;;;;;4996938;28;20484;-82
2022/04/22 14:18:50;;;;;;;20.60;15.35;;;;;;;;;;4994907;28;20037;-82
2022/04/22 14:21:16;;;;;;;20.88;13.88;;;;;;;;;;4995281;28;20034;-82
2022/04/22 14:23:42;;;;;;;20.92;14.98;;;;;;;;;;4998796;28;20074;-82
2022/04/22 14:26:12;;;;;;;19.63;14.05;;;;;;;;;;4993872;28;20054;-82
2022/04/22 14:28:38;;;;;;;21.65;15.52;;;;;;;;;;4998323;28;20031;-83
2022/04/22 14:31:05;;;;;;;24.75;16.77;;;;;;;;;;4998520;28;20026;-81
2022/04/22 14:33:32;;;;;;;21.92;14.98;;;;;;;;;;4996137;28;20113;-81
2022/04/22 14:35:58;;;;;;;22.85;14.93;;;;;;;;;;4997249;28;20450;-79
2022/04/22 14:38:24;;;;;;;20.52;14.55;;;;;;;;;;4997836;28;20030;-83
2022/04/22 14:40:51;;;;;;;21.50;15.77;;;;;;;;;;4996896;28;20065;-80
2022/04/22 14:43:17;;;;;;;20.38;15.35;;;;;;;;;;4996505;28;20105;-81
2022/04/22 14:45:43;;;;;;;21.42;15.30;;;;;;;;;;4997764;28;20400;-81
2022/04/22 14:48:09;;;;;;;22.65;15.48;;;;;;;;;;4997007;28;20113;-81
2022/04/22 14:50:35;;;;;;;19.75;15.18;;;;;;;;;;4995808;28;20501;-82
2022/04/22 14:53:02;;;;;;;20.50;14.90;;;;;;;;;;4996722;28;20052;-82
2022/04/22 14:55:28;;;;;;;21.30;15.30;;;;;;;;;;4998000;28;20014;-82
2022/04/22 14:57:54;;;;;;;21.98;15.32;;;;;;;;;;4996372;28;20057;-82
2022/04/22 15:00:20;;;;;;;23.58;15.70;;;;;;;;;;4995299;28;20033;-82
2022/04/22 15:02:46;;;;;;;21.00;15.25;;;;;;;;;;4996193;28;20022;-81
2022/04/22 15:05:12;;;;;;;22.88;15.65;;;;;;;;;;4997112;28;20026;-82
2022/04/22 15:07:38;;;;;;;22.05;15.82;;;;;;;;;;4994469;28;20529;-81
2022/04/22 15:10:05;;;;;;;24.60;16.98;;;;;;;;;;4992983;28;20029;-81
2022/04/22 15:12:31;;;;;;;21.75;16.35;;;;;;;;;;4993069;28;20034;-81
2022/04/22 15:14:57;;;;;;;21.38;15.20;;;;;;;;;;4995239;28;20022;-80
2022/04/22 15:25:45;;;;;;;21.55;15.90;;;;;;;;;;4997608;28;20121;-80
2022/04/22 15:28:11;;;;;;;30.92;19.13;;;;;;;;;;4996557;28;20054;-80
2022/04/22 15:31:07;;;;;;;34.30;22.42;;;;;;;;;;4993896;28;20081;-82
2022/04/22 15:33:33;;;;;;;28.65;18.75;;;;;;;;;;4993718;28;20126;-79
2022/04/22 15:36:05;;;;;;;30.05;20.38;;;;;;;;;;4994712;28;20489;-82
2022/04/22 15:38:34;;;;;;;30.45;20.58;;;;;;;;;;5003974;28;20050;-80
2022/04/22 15:41:01;;;;;;;27.92;19.52;;;;;;;;;;5008888;28;20065;-81
2022/04/22 15:43:27;;;;;;;30.75;20.55;;;;;;;;;;4994257;28;20074;-81
2022/04/22 15:45:54;;;;;;;26.45;19.63;;;;;;;;;;4994463;28;20504;-82
2022/04/22 15:48:20;;;;;;;28.10;19.13;;;;;;;;;;4998770;28;20050;-83
2022/04/22 15:50:46;;;;;;;26.45;18.27;;;;;;;;;;5010833;28;20034;-82
2022/04/22 15:53:12;;;;;;;26.52;18.33;;;;;;;;;;4993298;28;20054;-83
2022/04/22 15:55:39;;;;;;;27.00;19.92;;;;;;;;;;4999971;28;20050;-83